NTAA Airport Information

Runway Information
Runway 04 Length 11360 ft width 148 ft
Elevation 5 ft Threshold 1120 ft Heading 54
Runway 22 Length 11360 ft Width 148 ft
Elevation 5 ft Threshold 390 ft Heading 234
Airport Frequencies
Type APP Name APP Frequency 118.1 MHZ
Type ATIS Name ATIS Frequency 128.8 MHZ
Type GND Name GND Frequency 121.9 MHZ
Type TWR Name TWR Frequency 118.1 MHZ
Airport Navaids
Type NDB Name Tahiti Faaa Frequency 305 KHZ
Type VOR-DME Name Tahiti Faaa Frequency 112900 KHZ
Airport Weather Information & NOTAM
ADDS - METARS form results

(0812 UTC 22 May 2018)
 
METAR text: NTAA 220800Z VRB03KT 9999 FEW023 SCT066 25/20 Q1015 NOSIG
Conditions at: NTAA (TAHITI-FAAA POLY, WS) observed 0800 UTC 22 May 2018
Temperature: 25.0°C (77°F)
Dewpoint: 20.0°C (68°F) [RH = 74%]
Pressure (altimeter): 29.97 inches Hg (1015.0 mb)
Winds: variable direction winds at 3 MPH (3 knots; 1.6 m/s)
Visibility: 6 or more miles (10+ km)
Ceiling: at least 12,000 feet AGL
Clouds: few clouds at 2300 feet AGL
scattered clouds at 6600 feet AGL
Weather: no significant weather observed at this time

METAR text: NTAA 220730Z 10004KT 9999 VCSH FEW023 SCT066 25/21 Q1015 NOSIG
Conditions at: NTAA (TAHITI-FAAA POLY, WS) observed 0730 UTC 22 May 2018
Temperature: 25.0°C (77°F)
Dewpoint: 21.0°C (70°F) [RH = 79%]
Pressure (altimeter): 29.97 inches Hg (1015.0 mb)
Winds: from the E (100 degrees) at 5 MPH (4 knots; 2.1 m/s)
Visibility: 6 or more miles (10+ km)
Ceiling: at least 12,000 feet AGL
Clouds: few clouds at 2300 feet AGL
scattered clouds at 6600 feet AGL
Weather: VCSH  (showers in vicinity)